Sao Felix do Tocantins, Brazil
Current Conditions -  °F | °C
As of 11:00 AM on Wednesday 28 Jan 2015 (Local Time) from SBPJ Reporting Station
Few Clouds Few Clouds  
Wind Chill: 84°   Ceiling: Unl
Heat Index: 92°   Visibility: 6mi
Dew Point: 75°   Wind: 8mph
Humidity: 74%   Direction: 220°SW
Pressure: 29.94"   Gusts: NA
Location:  10.17°S, 46.66°W
Report Text: SBPJ 281400Z 22007KT 9999 FEW025 29/24 Q1014
Loading
Personal Weather Stations






























Interactive Weather Map New forecast layout! Learn more

10-Day Weather Forecast

Advertisements
Track Severe Weather on mobile